EW4431 Weather Reports


Display with metric or nautical units.
time (UTC)temp
F
wind
direction
speed
MPH
gust
MPH
rain 1hr
in
rain 24hr
in
rain mn
in
humidity
%
barometer
mb
20210621094639 89 190 0.0 4.0 0.00 0.00 0.00 36 1009.1
20210621093045 91 190 0.0 5.0 0.00 0.00 0.00 34 1008.9
20210621091551 91 190 2.0 6.0 0.00 0.00 0.00 34 1008.6
20210621090037 90 190 0.0 3.0 0.00 0.00 0.00 35 1008.2
20210621084528 89 190 0.0 1.0 0.00 0.00 0.00 37 1008.1
20210621083046 90 190 0.0 1.0 0.00 0.00 0.00 36 1008.0
20210621081542 91 190 0.0 1.0 0.00 0.00 0.00 35 1007.9
20210621080046 92 190 0.0 2.0 0.00 0.00 0.00 33 1007.8
20210621074535 92 190 0.0 2.0 0.00 0.00 0.00 33 1007.6
20210621073019 93 190 0.0 2.0 0.00 0.00 0.00 31 1007.4
20210621071520 95 190 0.0 5.0 0.00 0.00 0.00 29 1007.1
20210621070040 96 190 0.0 7.0 0.00 0.00 0.00 29 1007.0
20210621064656 96 190 3.0 7.0 0.00 0.00 0.00 28 1007.0
20210621063139 97 190 4.0 8.0 0.00 0.00 0.00 27 1007.0
20210621061545 98 190 3.0 8.0 0.00 0.00 0.00 25 1006.9
20210621060045 98 190 2.0 9.0 0.00 0.00 0.00 24 1006.8
20210621054559 99 190 1.0 7.0 0.00 0.00 0.00 22 1006.6
20210621053128 100 190 2.0 8.0 0.00 0.00 0.00 21 1006.6
20210621051550 101 190 4.0 8.0 0.00 0.00 0.00 20 1006.5
20210621050119 101 190 3.0 8.0 0.00 0.00 0.00 18 1006.4
20210621044620 100 190 1.0 6.0 0.00 0.00 0.00 18 1006.2
20210621043126 101 190 1.0 5.0 0.00 0.00 0.00 17 1006.1
20210621041616 102 190 2.0 4.0 0.00 0.00 0.00 16 1005.8
20210621040056 102 190 2.0 4.0 0.00 0.00 0.00 15 1005.5
20210621034701 103 190 1.0 5.0 0.00 0.00 0.00 14 1005.3
20210621033053 104 190 2.0 5.0 0.00 0.00 0.00 14 1005.0
20210621031534 105 190 3.0 8.0 0.00 0.00 0.00 14 1004.9
20210621030008 105 190 2.0 8.0 0.00 0.00 0.00 13 1004.7
20210621024502 106 190 2.0 8.0 0.00 0.00 0.00 13 1004.6
20210621023004 107 190 4.0 10.0 0.00 0.00 0.00 12 1004.5
20210621020159 108 190 5.0 12.0 0.00 0.00 0.00 11 1004.3
20210621020002 108 190 6.0 12.0 0.00 0.00 0.00 11 1004.2
20210621014637 109 190 4.0 12.0 0.00 0.00 0.00 11 1004.1
20210621013205 110 190 4.0 12.0 0.00 0.00 0.00 11 1003.9
20210621011650 110 190 4.0 13.0 0.00 0.00 0.00 10 1004.0
20210621010131 111 190 5.0 17.0 0.00 0.00 0.00 10 1003.9
20210621004608 111 190 3.0 11.0 0.00 0.00 0.00 11 1004.0
20210621003147 111 190 7.0 15.0 0.00 0.00 0.00 10 1004.0
20210621001609 112 190 4.0 13.0 0.00 0.00 0.00 10 1004.0
20210621000243 112 190 4.0 12.0 0.00 0.00 0.00 10 1004.0
20210620234636 112 190 5.0 11.0 0.00 0.00 0.00 10 1004.3
20210620233142 112 190 3.0 10.0 0.00 0.00 0.00 10 1004.5
20210620231606 113 190 5.0 14.0 0.00 0.00 0.00 9 1004.6
20210620230130 112 190 3.0 11.0 0.00 0.00 0.00 12 1004.7
20210620224518 112 190 4.0 10.0 0.00 0.00 0.00 12 1004.9
20210620223043 112 190 3.0 11.0 0.00 0.00 0.00 12 1005.0
20210620221520 111 190 4.0 15.0 0.00 0.00 0.00 13 1005.2
20210620220002 111 190 3.0 11.0 0.00 0.00 0.00 14 1005.4
20210620214818 111 190 5.0 15.0 0.00 0.00 0.00 13 1005.6
20210620213200 111 190 7.0 14.0 0.00 0.00 0.00 12 1005.8
20210620211709 111 190 5.0 15.0 0.00 0.00 0.00 13 1006.0
20210620210040 111 190 3.0 10.0 0.00 0.00 0.00 13 1006.0
20210620204604 111 190 4.0 14.0 0.00 0.00 0.00 14 1006.1
20210620203132 110 190 2.0 11.0 0.00 0.00 0.00 14 1006.3
20210620201611 110 190 2.0 10.0 0.00 0.00 0.00 14 1006.4
20210620200032 109 190 3.0 8.0 0.00 0.00 0.00 15 1006.5
20210620194537 108 190 1.0 8.0 0.00 0.00 0.00 15 1006.7
20210620193038 108 190 1.0 7.0 0.00 0.00 0.00 16 1006.9
20210620191542 107 190 2.0 7.0 0.00 0.00 0.00 17 1007.0
20210620190016 108 190 1.0 5.0 0.00 0.00 0.00 18 1007.1
20210620184518 106 190 0.0 7.0 0.00 0.00 0.00 20 1007.2
20210620183007 106 190 1.0 5.0 0.00 0.00 0.00 18 1007.2
20210620181517 106 190 2.0 8.0 0.00 0.00 0.00 18 1007.4
20210620180022 106 190 2.0 6.0 0.00 0.00 0.00 19 1007.4
20210620174520 105 190 4.0 8.0 0.00 0.00 0.00 19 1007.4
20210620173209 104 190 0.0 6.0 0.00 0.00 0.00 20 1007.4
20210620171718 103 190 2.0 6.0 0.00 0.00 0.00 19 1007.3
20210620170116 103 190 0.0 4.0 0.00 0.00 0.00 21 1007.4
20210620164724 102 190 0.0 1.0 0.00 0.00 0.00 21 1007.3
20210620163130 101 190 0.0 5.0 0.00 0.00 0.00 21 1007.3
20210620161638 100 190 0.0 4.0 0.00 0.00 0.00 23 1007.3
20210620160201 99 190 0.0 5.0 0.00 0.00 0.00 22 1007.3
20210620154553 98 190 0.0 5.0 0.00 0.00 0.00 23 1007.2
20210620153039 97 190 2.0 5.0 0.00 0.00 0.00 23 1007.1
20210620151552 95 190 1.0 5.0 0.00 0.00 0.00 24 1007.1
20210620150056 95 190 2.0 6.0 0.00 0.00 0.00 24 1007.0
20210620144539 93 190 2.0 4.0 0.00 0.00 0.00 25 1006.9
20210620143125 93 190 1.0 5.0 0.00 0.00 0.00 26 1006.6
20210620141614 92 190 0.0 4.0 0.00 0.00 0.00 27 1006.5
20210620140056 91 190 1.0 3.0 0.00 0.00 0.00 29 1006.3
20210620134548 89 190 0.0 3.0 0.00 0.00 0.00 30 1006.0
20210620133118 0 0.0 0.0 0.00 0.00 0.00 1005.9
20210620131533 0 0.0 0.0 0.00 0.00 0.00 1005.7
20210620130026 0 0.0 0.0 0.00 0.00 0.00 1005.7
20210620124514 0 0.0 0.0 0.00 0.00 0.00 1005.5
20210620123039 0 0.0 0.0 0.00 0.00 0.00 1005.2
20210620121516 0 0.0 0.0 0.00 0.00 0.00 1004.8
20210620120218 0 0.0 0.0 0.00 0.00 0.00 1004.6
20210620114629 83 190 0.0 0.0 0.00 0.00 0.00 40 1004.4
20210620113146 83 190 0.0 0.0 0.00 0.00 0.00 41 1004.3
20210620111659 83 190 0.0 0.0 0.00 0.00 0.00 40 1004.3
20210620110303 84 190 0.0 0.0 0.00 0.00 0.00 39 1004.1
20210620104632 83 190 0.0 0.0 0.00 0.00 0.00 38 1004.0
20210620103112 85 190 0.0 0.0 0.00 0.00 0.00 38 1003.8
20210620101558 86 190 0.0 0.0 0.00 0.00 0.00 34 1003.8
20210620100103 88 190 0.0 0.0 0.00 0.00 0.00 32 1003.6